Salamis Filoxenia — 5BUY2 — position and weather

sailwx.info

Track history (hours):
 
Tides and Currents Weather Stations Pressure Air Temp Water Temp Dewpoint Dewpoint Depression Visibility Wind Speed Wind Dir Waves Ship Positions

Salamis Filoxenia

Last reported at 2015-Jul-29 01:18 UTC. Time now 2015-Jul-29 17:54 UTC.
Position N 37°51' E 026°14'.

Length 157 m; draft 6.2 m.

Type: Passenger vessel. MMSI: 209167000.

Date/timePositionNaut miles runAvg speedWind from/ knotsBaromVisibWave heightAir tempDewpointWater temp
2015-Jul-29 01:18N 37°51' E 026°14'1014.0
2015-Jul-29 00:33N 37°45' E 026°25'3414.4
2015-Jul-28 22:10N 37°19' E 026°53'2913.8
2015-Jul-28 20:06N 36°57' E 027°16'35 3.7
2015-Jul-28 10:27N 36°31' E 027°46'25014.4
2015-Jul-27 17:09N 34°42' E 032°22'914.4
2015-Jul-27 16:33N 34°39' E 032°32'1414.5
2015-Jul-27 15:33N 34°34' E 032°49'1312.6
2015-Jul-27 14:34N 34°34' E 033°04'5 5.4
2015-Jul-27 13:34N 34°39' E 033°01'0 0.0
2015-Jul-27 12:33N 34°39' E 033°01'0 0.0
2015-Jul-27 11:33N 34°39' E 033°01'0 0.0
2015-Jul-27 10:33N 34°39' E 033°01'0 0.0
2015-Jul-27 09:34N 34°39' E 033°01'0 0.0
2015-Jul-27 08:33N 34°39' E 033°01'7 6.7
2015-Jul-27 07:33N 34°33' E 033°04'1414.2
2015-Jul-27 06:33N 34°34' E 032°47'1515.1
2015-Jul-27 05:33N 34°39' E 032°29'5214.9
2015-Jul-27 02:04N 35°03' E 031°33'18015.4
2015-Jul-26 14:19N 36°28' E 028°17'2614.4
2015-Jul-26 12:33N 36°30' E 027°45'1414.0
2015-Jul-26 11:33N 36°31' E 027°28'1414.4
2015-Jul-26 10:33N 36°32' E 027°10'1514.9
2015-Jul-26 09:32N 36°37' E 026°53'1515.2
2015-Jul-26 08:33N 36°46' E 026°38'1514.8
2015-Jul-26 07:33N 36°54' E 026°22'1615.2
2015-Jul-26 06:31N 37°02' E 026°05'1515.1
2015-Jul-26 05:33N 37°10' E 025°49'1515.1
2015-Jul-26 04:33N 37°17' E 025°33'1514.8
2015-Jul-26 03:33N 37°25' E 025°17'3 2.8
2015-Jul-26 02:23N 37°28' E 025°20'0 0.0
2015-Jul-26 01:32N 37°28' E 025°20'0 0.0
2015-Jul-26 00:32N 37°28' E 025°20'0 0.0
2015-Jul-25 23:32N 37°28' E 025°20'0 0.0
2015-Jul-25 22:32N 37°28' E 025°20'0 0.0
2015-Jul-25 21:32N 37°28' E 025°20'0 0.0
2015-Jul-25 20:32N 37°28' E 025°20'0 0.0
2015-Jul-25 19:32N 37°28' E 025°20'0 0.0
2015-Jul-25 18:33N 37°28' E 025°20'0 0.0
2015-Jul-25 17:33N 37°28' E 025°20'0 0.0
2015-Jul-25 16:33N 37°28' E 025°20'0 0.0
2015-Jul-25 15:33N 37°28' E 025°20'1 0.7
2015-Jul-25 14:34N 37°27' E 025°19'1212.4
2015-Jul-25 13:33N 37°18' E 025°29'1615.6
2015-Jul-25 12:34N 37°11' E 025°46'1616.0
2015-Jul-25 11:32N 37°03' E 026°04'1515.3
2015-Jul-25 10:33N 36°55' E 026°20'1615.3
2015-Jul-25 09:33N 36°46' E 026°36'1616.1
2015-Jul-25 08:33N 36°38' E 026°53'3415.9
2015-Jul-25 06:26N 36°30' E 027°34'1416.3
2015-Jul-25 05:33N 36°30' E 027°52'25715.1
2015-Jul-24 12:34N 34°37' E 032°36'1615.8
2015-Jul-24 11:34N 34°32' E 032°54'9 9.0
2015-Jul-24 10:34N 34°39' E 033°02'1 0.6
2015-Jul-24 09:34N 34°39' E 033°01'0 0.0
2015-Jul-24 08:34N 34°39' E 033°01'0 0.0
2015-Jul-24 07:34N 34°39' E 033°01'0 0.0
2015-Jul-24 06:34N 34°39' E 033°01'0 0.0
2015-Jul-24 05:34N 34°39' E 033°01'0 0.2
2015-Jul-24 04:34N 34°39' E 033°01'8 8.0
2015-Jul-24 03:33N 34°32' E 032°57'1414.0
2015-Jul-24 02:33N 34°36' E 032°41'10114.2
2015-Jul-23 19:25N 35°28' E 030°54'4214.5
2015-Jul-23 16:32N 35°51' E 030°11'1414.5
2015-Jul-23 15:33N 35°58' E 029°56'1514.7
2015-Jul-23 14:34N 36°06' E 029°41'131 8.1
2015-Jul-22 22:21N 36°33' E 027°02'1313.4
2015-Jul-22 21:24N 36°43' E 026°52'1113.3
2015-Jul-22 20:33N 36°53' E 026°46'1313.3
2015-Jul-22 19:33N 37°05' E 026°38'1413.6
2015-Jul-22 18:33N 37°17' E 026°29'1313.2
2015-Jul-22 17:33N 37°29' E 026°23'15 1.6
2015-Jul-22 08:15N 37°30' E 026°04'812.1
2015-Jul-22 07:34N 37°32' E 025°54'1413.6
2015-Jul-22 06:33N 37°42' E 025°42'1413.9
2015-Jul-22 05:34N 37°50' E 025°28'90 2.7
2015-Jul-20 20:22N 37°03' E 027°04'1214.9
2015-Jul-20 19:33N 36°56' E 027°17'2512.0
2015-Jul-20 17:26N 36°35' E 027°35'1314.4
2015-Jul-20 16:33N 36°31' E 027°49'21 2.6
2015-Jul-20 08:32N 36°27' E 028°15'22813.8
2015-Jul-19 16:03N 34°41' E 032°23'713.8
2015-Jul-19 15:33N 34°39' E 032°30'1414.1
2015-Jul-19 14:33N 34°35' E 032°47'1313.3
2015-Jul-19 13:34N 34°33' E 033°03'6 6.3
2015-Jul-19 12:32N 34°39' E 033°01'0 0.0
2015-Jul-19 11:34N 34°39' E 033°01'0 0.0
2015-Jul-19 10:34N 34°39' E 033°01'0 0.0
2015-Jul-19 09:33N 34°39' E 033°01'0 0.0
2015-Jul-19 08:34N 34°39' E 033°01'0 0.0
2015-Jul-19 07:34N 34°39' E 033°01'8 7.7
2015-Jul-19 06:34N 34°32' E 032°58'1313.4
2015-Jul-19 05:34N 34°36' E 032°42'1813.4
2015-Jul-19 04:14N 34°41' E 032°22'  
Track history (hours):
 
Tides and Currents Weather Stations Pressure Air Temp Water Temp Dewpoint Dewpoint Depression Visibility Wind Speed Wind Dir Waves Ship Positions

Salamis Filoxenia

Last reported at 2015-Jul-29 01:18 UTC. Time now 2015-Jul-29 17:54 UTC.
Position N 37°51' E 026°14'.

Length 157 m; draft 6.2 m.

Type: Passenger vessel. MMSI: 209167000.

Date/timePositionNaut miles runAvg speedWind from/ knotsBaromVisibWave heightAir tempDewpointWater temp
2015-Jul-29 01:18N 37°51' E 026°14'1014.0
2015-Jul-29 00:33N 37°45' E 026°25'3414.4
2015-Jul-28 22:10N 37°19' E 026°53'2913.8
2015-Jul-28 20:06N 36°57' E 027°16'35 3.7
2015-Jul-28 10:27N 36°31' E 027°46'25014.4
2015-Jul-27 17:09N 34°42' E 032°22'914.4
2015-Jul-27 16:33N 34°39' E 032°32'1414.5
2015-Jul-27 15:33N 34°34' E 032°49'1312.6
2015-Jul-27 14:34N 34°34' E 033°04'5 5.4
2015-Jul-27 13:34N 34°39' E 033°01'0 0.0
2015-Jul-27 12:33N 34°39' E 033°01'0 0.0
2015-Jul-27 11:33N 34°39' E 033°01'0 0.0
2015-Jul-27 10:33N 34°39' E 033°01'0 0.0
2015-Jul-27 09:34N 34°39' E 033°01'0 0.0
2015-Jul-27 08:33N 34°39' E 033°01'7 6.7
2015-Jul-27 07:33N 34°33' E 033°04'1414.2
2015-Jul-27 06:33N 34°34' E 032°47'1515.1
2015-Jul-27 05:33N 34°39' E 032°29'5214.9
2015-Jul-27 02:04N 35°03' E 031°33'18015.4
2015-Jul-26 14:19N 36°28' E 028°17'2614.4
2015-Jul-26 12:33N 36°30' E 027°45'1414.0
2015-Jul-26 11:33N 36°31' E 027°28'1414.4
2015-Jul-26 10:33N 36°32' E 027°10'1514.9
2015-Jul-26 09:32N 36°37' E 026°53'1515.2
2015-Jul-26 08:33N 36°46' E 026°38'1514.8
2015-Jul-26 07:33N 36°54' E 026°22'1615.2
2015-Jul-26 06:31N 37°02' E 026°05'1515.1
2015-Jul-26 05:33N 37°10' E 025°49'1515.1
2015-Jul-26 04:33N 37°17' E 025°33'1514.8
2015-Jul-26 03:33N 37°25' E 025°17'3 2.8
2015-Jul-26 02:23N 37°28' E 025°20'0 0.0
2015-Jul-26 01:32N 37°28' E 025°20'0 0.0
2015-Jul-26 00:32N 37°28' E 025°20'0 0.0
2015-Jul-25 23:32N 37°28' E 025°20'0 0.0
2015-Jul-25 22:32N 37°28' E 025°20'0 0.0
2015-Jul-25 21:32N 37°28' E 025°20'0 0.0
2015-Jul-25 20:32N 37°28' E 025°20'0 0.0
2015-Jul-25 19:32N 37°28' E 025°20'0 0.0
2015-Jul-25 18:33N 37°28' E 025°20'0 0.0
2015-Jul-25 17:33N 37°28' E 025°20'0 0.0
2015-Jul-25 16:33N 37°28' E 025°20'0 0.0
2015-Jul-25 15:33N 37°28' E 025°20'1 0.7
2015-Jul-25 14:34N 37°27' E 025°19'1212.4
2015-Jul-25 13:33N 37°18' E 025°29'1615.6
2015-Jul-25 12:34N 37°11' E 025°46'1616.0
2015-Jul-25 11:32N 37°03' E 026°04'1515.3
2015-Jul-25 10:33N 36°55' E 026°20'1615.3
2015-Jul-25 09:33N 36°46' E 026°36'1616.1
2015-Jul-25 08:33N 36°38' E 026°53'3415.9
2015-Jul-25 06:26N 36°30' E 027°34'1416.3
2015-Jul-25 05:33N 36°30' E 027°52'25715.1
2015-Jul-24 12:34N 34°37' E 032°36'1615.8
2015-Jul-24 11:34N 34°32' E 032°54'9 9.0
2015-Jul-24 10:34N 34°39' E 033°02'1 0.6
2015-Jul-24 09:34N 34°39' E 033°01'0 0.0
2015-Jul-24 08:34N 34°39' E 033°01'0 0.0
2015-Jul-24 07:34N 34°39' E 033°01'0 0.0
2015-Jul-24 06:34N 34°39' E 033°01'0 0.0
2015-Jul-24 05:34N 34°39' E 033°01'0 0.2
2015-Jul-24 04:34N 34°39' E 033°01'8 8.0
2015-Jul-24 03:33N 34°32' E 032°57'1414.0
2015-Jul-24 02:33N 34°36' E 032°41'10114.2
2015-Jul-23 19:25N 35°28' E 030°54'4214.5
2015-Jul-23 16:32N 35°51' E 030°11'1414.5
2015-Jul-23 15:33N 35°58' E 029°56'1514.7
2015-Jul-23 14:34N 36°06' E 029°41'131 8.1
2015-Jul-22 22:21N 36°33' E 027°02'1313.4
2015-Jul-22 21:24N 36°43' E 026°52'1113.3
2015-Jul-22 20:33N 36°53' E 026°46'1313.3
2015-Jul-22 19:33N 37°05' E 026°38'1413.6
2015-Jul-22 18:33N 37°17' E 026°29'1313.2
2015-Jul-22 17:33N 37°29' E 026°23'15 1.6
2015-Jul-22 08:15N 37°30' E 026°04'812.1
2015-Jul-22 07:34N 37°32' E 025°54'1413.6
2015-Jul-22 06:33N 37°42' E 025°42'1413.9
2015-Jul-22 05:34N 37°50' E 025°28'90 2.7
2015-Jul-20 20:22N 37°03' E 027°04'1214.9
2015-Jul-20 19:33N 36°56' E 027°17'2512.0
2015-Jul-20 17:26N 36°35' E 027°35'1314.4
2015-Jul-20 16:33N 36°31' E 027°49'21 2.6
2015-Jul-20 08:32N 36°27' E 028°15'22813.8
2015-Jul-19 16:03N 34°41' E 032°23'713.8
2015-Jul-19 15:33N 34°39' E 032°30'1414.1
2015-Jul-19 14:33N 34°35' E 032°47'1313.3
2015-Jul-19 13:34N 34°33' E 033°03'6 6.3
2015-Jul-19 12:32N 34°39' E 033°01'0 0.0
2015-Jul-19 11:34N 34°39' E 033°01'0 0.0
2015-Jul-19 10:34N 34°39' E 033°01'0 0.0
2015-Jul-19 09:33N 34°39' E 033°01'0 0.0
2015-Jul-19 08:34N 34°39' E 033°01'0 0.0
2015-Jul-19 07:34N 34°39' E 033°01'8 7.7
2015-Jul-19 06:34N 34°32' E 032°58'1313.4
2015-Jul-19 05:34N 34°36' E 032°42'1813.4
2015-Jul-19 04:14N 34°41' E 032°22'  

Dump ship's entire track history